< < Back
Terminal Aerodrome Forecast


Current Version              Previous Versions:   1  2  3  4  5  6  7  8  9  

Terminal Aerodrome Forecast

349
FTUS42 KFFC 272300
TAFAHN
TAF
KAHN 272324Z 2800/2824 25005KT P6SM FEW050 SCT140
     FM280800 25006KT 5SM BR VCSH SCT040 SCT100
     FM281300 27010KT P6SM VCSH BKN050
     FM281800 30010G19KT P6SM SCT040 BKN120=

Latest METAR

014
SAUS70 KWBC 280600 RRA
MTRAHN
METAR KAHN 280551Z AUTO 26003KT 10SM CLR 26/22 A2992 RMK AO2 SLP122
T02610217 10311 20261 56008


USA.gov is the U.S. government's official web portal to all federal, state and local government web resources and services.